Terminal Aerodrome Forecast
Issued by NWS Blacksburg, VA

Home | Current Version | Previous Version | Text Only | Print | Product List | Glossary On
Versions: 1 2 3 4 5 6 7 8 9 10 11 12 13 14 15 16 17 18 19 20 21 22 23
000
FTUS41 KRNK 201123
TAFROA
TAF
KROA 201123Z 2012/2112 13003KT P6SM OVC060
     FM201300 13005KT P6SM -SN BKN035 OVC060
     FM201800 18005KT P6SM SCT025 BKN045
     FM210300 11003KT P6SM SCT020 BKN100
     FM210800 09002KT 5SM BR BKN015=

USA.gov is the U.S. government's official web portal to all federal, state and local government web resources and services.